Time;durP1;ratioP1;P1;durP2;ratioP2;P2;SDS_P1;SDS_P2;PMS_P1;PMS_P2;Temp;Humidity;BMP_temperature;BMP_pressure;BME280_temperature;BME280_humidity;BME280_pressure;Samples;Min_cycle;Max_cycle;Signal;HPM_P1;HPM_P2
2022/12/27 00:00:35;;;;;;;2.10;0.82;;;-6.30;99.90;;;;;;5048241;28;20045;-75
2022/12/27 00:03:03;;;;;;;2.13;0.70;;;-6.30;99.90;;;;;;5032358;28;20110;-76
2022/12/27 00:05:31;;;;;;;1.50;0.68;;;-6.30;99.90;;;;;;5045175;28;20043;-75
2022/12/27 00:07:58;;;;;;;1.90;0.50;;;-6.30;99.90;;;;;;5042230;28;20551;-75
2022/12/27 00:10:29;;;;;;;2.53;1.05;;;-6.30;99.90;;;;;;5032132;28;20041;-75
2022/12/27 00:12:56;;;;;;;0.77;0.70;;;-6.30;99.90;;;;;;5031428;28;20060;-81
2022/12/27 00:15:24;;;;;;;0.68;0.68;;;-6.40;99.90;;;;;;5034230;28;20064;-81
2022/12/27 00:17:51;;;;;;;2.47;0.80;;;-6.40;99.90;;;;;;5033559;28;20080;-81
2022/12/27 00:20:19;;;;;;;0.90;0.70;;;-6.50;99.90;;;;;;5038467;28;20057;-81
2022/12/27 00:22:46;;;;;;;2.05;1.15;;;-6.50;99.90;;;;;;5031072;28;20053;-76
2022/12/27 00:25:14;;;;;;;1.50;0.70;;;-6.50;99.90;;;;;;5043957;28;20056;-75
2022/12/27 00:27:43;;;;;;;8.13;0.90;;;-6.50;99.90;;;;;;5036371;28;20489;-76
2022/12/27 00:30:12;;;;;;;1.50;0.85;;;-6.50;99.90;;;;;;5038574;28;20560;-76
2022/12/27 00:32:40;;;;;;;2.10;1.05;;;-6.50;99.90;;;;;;5034434;28;20060;-74
2022/12/27 00:35:08;;;;;;;3.42;0.95;;;-6.40;99.90;;;;;;5027725;28;20045;-75
2022/12/27 00:37:36;;;;;;;2.70;0.80;;;-6.40;99.90;;;;;;5032922;28;20448;-75
2022/12/27 00:40:05;;;;;;;1.63;1.15;;;-6.40;99.90;;;;;;5050789;28;20441;-75
2022/12/27 00:42:32;;;;;;;1.42;0.90;;;-6.40;99.90;;;;;;5045336;28;20139;-75
2022/12/27 00:45:01;;;;;;;0.57;0.57;;;-6.30;99.90;;;;;;5052138;28;20060;-75
2022/12/27 00:47:31;;;;;;;1.80;0.68;;;-6.30;99.90;;;;;;5038790;28;20144;-75
2022/12/27 00:49:58;;;;;;;1.65;0.80;;;-6.30;99.90;;;;;;5054177;28;20049;-75
2022/12/27 00:52:26;;;;;;;1.20;0.77;;;-6.30;99.90;;;;;;5049793;28;20095;-76
2022/12/27 00:54:53;;;;;;;1.52;1.40;;;-6.30;99.90;;;;;;5040441;28;20057;-76
2022/12/27 00:57:21;;;;;;;1.63;0.73;;;-6.30;99.90;;;;;;5036230;28;20212;-75
2022/12/27 00:59:48;;;;;;;0.68;0.68;;;-6.20;99.90;;;;;;5047219;28;20068;-80
2022/12/27 01:02:17;;;;;;;3.10;1.15;;;-6.20;99.90;;;;;;5037790;28;20041;-80
2022/12/27 01:04:45;;;;;;;0.73;0.73;;;-6.20;99.90;;;;;;5049590;28;20045;-79
2022/12/27 01:07:12;;;;;;;4.05;1.35;;;-6.20;99.90;;;;;;5050368;28;20056;-79
2022/12/27 01:09:40;;;;;;;1.20;1.02;;;-6.20;99.90;;;;;;5042985;28;20052;-81
2022/12/27 01:12:07;;;;;;;2.55;1.20;;;-6.20;99.90;;;;;;5032948;28;20136;-79
2022/12/27 01:14:35;;;;;;;2.10;1.45;;;-6.10;99.90;;;;;;5049065;28;20086;-79
2022/12/27 01:17:03;;;;;;;1.42;1.30;;;-6.10;99.90;;;;;;5053914;28;20077;-81
2022/12/27 01:19:32;;;;;;;2.30;1.40;;;-6.10;99.90;;;;;;5045840;28;20045;-80
2022/12/27 01:21:59;;;;;;;2.20;1.42;;;-6.10;99.90;;;;;;5032855;28;20049;-81
2022/12/27 01:24:27;;;;;;;2.28;1.90;;;-6.10;99.90;;;;;;5033002;28;20053;-80
2022/12/27 01:26:55;;;;;;;3.58;1.60;;;-6.00;99.90;;;;;;5032894;28;20140;-80
2022/12/27 01:29:22;;;;;;;3.53;1.60;;;-6.00;99.90;;;;;;5041061;28;20591;-80
2022/12/27 01:31:50;;;;;;;6.15;1.85;;;-6.00;99.90;;;;;;5051386;28;20103;-81
2022/12/27 01:34:18;;;;;;;1.95;1.67;;;-6.00;99.90;;;;;;5053385;28;20053;-82
2022/12/27 01:36:47;;;;;;;1.67;1.50;;;-6.00;99.90;;;;;;5051825;28;20049;-81
2022/12/27 01:39:15;;;;;;;5.53;1.70;;;-6.00;99.90;;;;;;5051635;28;20425;-82
2022/12/27 01:44:53;;;;;;;2.08;1.58;;;-5.90;99.90;;;;;;5033730;28;20083;-81
2022/12/27 01:47:37;;;;;;;2.88;2.20;;;-5.90;99.90;;;;;;5038764;28;20065;-81
2022/12/27 01:50:20;;;;;;;1.60;1.45;;;-5.80;99.90;;;;;;5047794;28;20425;-81
2022/12/27 01:52:55;;;;;;;2.42;1.55;;;-5.90;99.90;;;;;;5051517;28;20080;-82
2022/12/27 01:55:31;;;;;;;3.83;1.88;;;-5.90;99.90;;;;;;5051296;28;20048;-80
2022/12/27 01:58:05;;;;;;;6.13;2.05;;;-5.80;99.90;;;;;;5051122;28;20405;-79
2022/12/27 02:00:33;;;;;;;1.73;1.63;;;-5.80;99.90;;;;;;5056670;28;20155;-80
2022/12/27 02:03:03;;;;;;;2.42;1.83;;;-5.80;99.90;;;;;;5052372;28;20068;-80
2022/12/27 02:05:31;;;;;;;3.78;1.60;;;-5.80;99.90;;;;;;5048915;28;20182;-80
2022/12/27 02:08:12;;;;;;;2.00;1.70;;;-5.80;99.90;;;;;;5045346;28;20098;-80
2022/12/27 02:10:40;;;;;;;3.72;1.70;;;-5.80;99.90;;;;;;5050684;28;20060;-82
2022/12/27 02:13:08;;;;;;;2.35;1.98;;;-5.80;99.90;;;;;;5052016;28;20077;-82
2022/12/27 02:15:36;;;;;;;2.20;1.83;;;-5.80;99.90;;;;;;5049355;28;20123;-82
2022/12/27 02:18:04;;;;;;;2.10;1.48;;;-5.80;99.90;;;;;;5051742;28;20045;-82
2022/12/27 02:20:48;;;;;;;3.05;1.58;;;-5.70;99.90;;;;;;5036731;28;20102;-81
2022/12/27 02:24:05;;;;;;;1.63;1.30;;;-5.70;99.90;;;;;;5040637;28;20049;-80
2022/12/27 02:26:56;;;;;;;2.30;2.08;;;-5.70;99.90;;;;;;5031222;28;20100;-81
2022/12/27 02:29:48;;;;;;;2.03;1.52;;;-5.70;99.90;;;;;;5030496;28;20256;-81
2022/12/27 02:32:23;;;;;;;3.60;1.85;;;-5.60;99.90;;;;;;5048619;28;20559;-81
2022/12/27 02:35:07;;;;;;;3.38;1.70;;;-5.60;99.90;;;;;;5049221;28;20509;-81
2022/12/27 02:37:41;;;;;;;2.97;1.60;;;-5.60;99.90;;;;;;5050792;28;20061;-81
2022/12/27 02:54:40;;;;;;;2.95;1.70;;;-5.50;99.90;;;;;;5032482;28;20053;-80
2022/12/27 02:57:20;;;;;;;4.22;1.90;;;-5.40;99.90;;;;;;5049644;28;20045;-80
2022/12/27 03:03:23;;;;;;;2.40;2.15;;;-5.30;99.90;;;;;;5047571;28;20044;-80
2022/12/27 03:09:11;;;;;;;;;;;-5.30;99.90;;;;;;5038614;28;20049;-81
2022/12/27 03:17:29;;;;;;;2.63;1.90;;;-5.50;99.90;;;;;;5031849;28;20056;-81
2022/12/27 03:25:40;;;;;;;2.72;2.47;;;-5.40;99.90;;;;;;5029687;28;20049;-81
2022/12/27 03:39:47;;;;;;;3.75;2.33;;;-5.30;99.90;;;;;;5034258;28;20497;-80
2022/12/27 03:45:09;;;;;;;3.75;2.30;;;-5.30;99.90;;;;;;5044469;28;20510;-80
2022/12/27 03:47:41;;;;;;;5.10;2.83;;;-5.30;99.90;;;;;;5044640;28;20447;-80
2022/12/27 03:50:13;;;;;;;;;;;-5.30;99.90;;;;;;5033540;28;20066;-79
2022/12/27 03:52:48;;;;;;;8.75;3.00;;;-5.30;99.90;;;;;;5029911;28;19975;-80
2022/12/27 03:55:17;;;;;;;4.53;2.40;;;-5.30;99.90;;;;;;5031433;28;20041;-81
2022/12/27 03:57:44;;;;;;;4.00;2.60;;;-5.30;99.90;;;;;;5037937;28;20475;-82
2022/12/27 04:00:14;;;;;;;3.53;2.47;;;-5.30;99.90;;;;;;5037494;28;20053;-81
2022/12/27 04:02:41;;;;;;;2.90;2.60;;;-5.30;99.90;;;;;;5030946;28;20057;-82
2022/12/27 04:05:09;;;;;;;3.65;2.17;;;-5.30;99.90;;;;;;5040660;28;20049;-81
2022/12/27 04:07:37;;;;;;;3.10;2.25;;;-5.30;99.90;;;;;;5034143;28;20053;-80
2022/12/27 04:34:53;;;;;;;5.85;3.25;;;-5.10;99.90;;;;;;5032697;28;20060;-81
2022/12/27 04:37:20;;;;;;;4.93;2.72;;;-5.20;99.90;;;;;;5027520;28;20051;-80
2022/12/27 04:54:55;;;;;;;4.47;3.28;;;-5.20;99.90;;;;;;5028835;28;20430;-81
2022/12/27 04:56:40;;;;;;;4.85;2.88;;;-5.10;99.90;;;;;;5041928;28;20144;-81
2022/12/27 05:02:03;;;;;;;5.28;2.80;;;-5.00;99.90;;;;;;5027246;28;20073;-81
2022/12/27 05:04:31;;;;;;;3.30;2.97;;;-5.00;99.90;;;;;;5046426;28;20059;-82
2022/12/27 05:13:58;;;;;;;4.30;2.92;;;-5.00;99.90;;;;;;5047078;28;20037;-78
2022/12/27 05:15:19;;;;;;;5.20;3.22;;;-4.90;99.90;;;;;;5047769;28;20041;-80
2022/12/27 05:17:47;;;;;;;2.70;2.50;;;-4.90;99.90;;;;;;5033724;28;20443;-80
2022/12/27 05:20:15;;;;;;;4.97;2.95;;;-4.80;99.90;;;;;;5038382;28;20139;-81
2022/12/27 05:25:37;;;;;;;3.50;3.00;;;-4.80;99.90;;;;;;5047835;28;20045;-80
2022/12/27 05:28:07;;;;;;;4.32;2.80;;;-4.80;99.90;;;;;;5046686;28;20050;-80
2022/12/27 05:30:38;;;;;;;3.05;2.25;;;-4.80;99.90;;;;;;5037697;28;20050;-80
2022/12/27 05:33:07;;;;;;;5.60;3.90;;;-4.80;99.90;;;;;;5032285;28;20078;-81
2022/12/27 05:35:35;;;;;;;3.55;2.58;;;-4.80;99.90;;;;;;5032125;28;20513;-81
2022/12/27 05:38:03;;;;;;;2.90;2.33;;;-4.80;99.90;;;;;;5036131;28;20075;-81
2022/12/27 05:40:31;;;;;;;5.63;2.80;;;-4.80;99.90;;;;;;5034063;28;20424;-82
2022/12/27 05:43:00;;;;;;;5.15;2.78;;;-4.80;99.90;;;;;;5015582;28;20054;-80
2022/12/27 05:45:28;;;;;;;5.85;2.60;;;-4.70;99.90;;;;;;5031670;28;20045;-82
2022/12/27 05:47:58;;;;;;;2.95;2.67;;;-4.70;99.90;;;;;;5047643;28;20044;-79
2022/12/27 05:50:26;;;;;;;4.78;2.97;;;-4.70;99.90;;;;;;5047247;28;20049;-80
2022/12/27 05:52:53;;;;;;;4.85;2.78;;;-4.60;99.90;;;;;;5044417;28;20057;-82
2022/12/27 05:55:21;;;;;;;5.78;3.25;;;-4.60;99.90;;;;;;5046274;28;20061;-80
2022/12/27 05:57:49;;;;;;;6.10;3.00;;;-4.60;99.90;;;;;;5040957;28;20556;-81
2022/12/27 06:00:17;;;;;;;4.15;2.70;;;-4.60;99.90;;;;;;5032405;28;20051;-82
2022/12/27 06:02:45;;;;;;;3.80;3.05;;;-4.60;99.90;;;;;;5035885;28;20383;-83
2022/12/27 06:05:14;;;;;;;4.40;3.15;;;-4.50;99.90;;;;;;5031703;28;20068;-82
2022/12/27 06:07:41;;;;;;;6.55;2.80;;;-4.50;99.90;;;;;;5048127;28;20472;-82
2022/12/27 06:10:12;;;;;;;4.07;2.95;;;-4.50;99.90;;;;;;5051533;28;20136;-80
2022/12/27 06:12:40;;;;;;;5.60;2.63;;;-4.40;99.90;;;;;;5030216;28;20049;-81
2022/12/27 06:15:08;;;;;;;8.75;3.17;;;-4.40;99.90;;;;;;5049677;28;20399;-83
2022/12/27 06:17:36;;;;;;;5.57;3.58;;;-4.40;99.90;;;;;;5053078;28;20049;-83
2022/12/27 06:20:04;;;;;;;5.93;3.47;;;-4.40;99.90;;;;;;5049408;28;20059;-78
2022/12/27 06:22:33;;;;;;;7.38;3.78;;;-4.40;99.90;;;;;;5044464;28;20054;-78
2022/12/27 06:25:01;;;;;;;4.63;2.70;;;-4.40;99.90;;;;;;5039115;28;20044;-77
2022/12/27 06:27:30;;;;;;;4.03;2.85;;;-4.40;99.90;;;;;;5031458;28;20414;-76
2022/12/27 06:29:58;;;;;;;5.47;3.70;;;-4.40;99.90;;;;;;5042783;28;20048;-76
2022/12/27 06:32:26;;;;;;;4.03;2.92;;;-4.40;99.90;;;;;;5035115;28;20110;-76
2022/12/27 06:34:56;;;;;;;7.47;3.28;;;-4.40;99.90;;;;;;5051337;28;20052;-82
2022/12/27 06:37:24;;;;;;;5.70;3.28;;;-4.30;99.90;;;;;;5052505;28;20056;-78
2022/12/27 06:39:53;;;;;;;6.63;2.97;;;-4.30;99.90;;;;;;5051048;28;20041;-79
2022/12/27 06:42:21;;;;;;;6.40;3.20;;;-4.20;99.90;;;;;;5049237;28;20061;-77
2022/12/27 06:44:49;;;;;;;5.50;3.55;;;-4.20;99.90;;;;;;5042478;28;20080;-78
2022/12/27 06:47:16;;;;;;;4.10;3.35;;;-4.20;99.90;;;;;;5036642;28;20127;-75
2022/12/27 06:49:46;;;;;;;5.47;2.92;;;-4.20;99.90;;;;;;5040982;28;20124;-72
2022/12/27 06:52:17;;;;;;;4.25;3.35;;;-4.10;99.90;;;;;;5048648;28;20049;-77
2022/12/27 06:54:44;;;;;;;5.63;3.00;;;-4.10;99.90;;;;;;5040905;28;20103;-78
2022/12/27 06:57:14;;;;;;;4.10;2.35;;;-4.10;99.90;;;;;;5030902;28;20049;-79
2022/12/27 06:59:42;;;;;;;4.20;2.90;;;-4.10;99.90;;;;;;5032524;28;20049;-79
2022/12/27 07:02:10;;;;;;;4.60;2.78;;;-4.00;99.90;;;;;;5037704;28;20175;-80
2022/12/27 07:04:38;;;;;;;3.00;2.80;;;-4.00;99.90;;;;;;5041689;28;20187;-76
2022/12/27 07:07:32;;;;;;;4.03;2.50;;;-4.00;99.90;;;;;;5042030;28;20041;-79
2022/12/27 07:10:07;;;;;;;6.07;2.30;;;-4.00;99.90;;;;;;5030797;28;20060;-83
2022/12/27 07:12:46;;;;;;;4.03;2.55;;;-3.90;99.90;;;;;;5035853;28;20139;-76
2022/12/27 07:15:18;;;;;;;2.92;2.63;;;-4.00;99.90;;;;;;5051942;28;20047;-81
2022/12/27 07:17:46;;;;;;;4.55;2.28;;;-3.90;99.90;;;;;;5051854;28;20048;-82
2022/12/27 07:20:17;;;;;;;3.20;2.85;;;-4.00;99.90;;;;;;5050247;28;20041;-81
2022/12/27 07:22:51;;;;;;;;;;;-3.90;99.90;;;;;;5053014;28;20109;-81
2022/12/27 07:25:21;;;;;;;4.30;2.60;;;-3.90;99.90;;;;;;5046835;28;20046;-78
2022/12/27 07:27:59;;;;;;;5.65;2.85;;;-3.90;99.90;;;;;;5051451;28;20052;-78
2022/12/27 07:30:29;;;;;;;3.22;2.70;;;-3.90;99.90;;;;;;5032588;28;20045;-81
2022/12/27 07:33:01;;;;;;;3.05;2.75;;;-3.90;99.90;;;;;;5049341;28;20578;-80
2022/12/27 07:35:30;;;;;;;;;;;-3.90;99.90;;;;;;5042995;28;20041;-81
2022/12/27 07:38:04;;;;;;;5.40;2.65;;;-3.80;99.90;;;;;;5049974;28;19932;-79
2022/12/27 07:40:50;;;;;;;3.70;2.85;;;-3.80;99.90;;;;;;5037330;28;20053;-79
2022/12/27 07:43:19;;;;;;;6.88;3.53;;;-3.80;99.90;;;;;;5036579;28;20600;-77
2022/12/27 07:45:47;;;;;;;4.03;3.35;;;-3.70;99.90;;;;;;5027598;28;20107;-77
2022/12/27 07:48:15;;;;;;;9.77;3.90;;;-3.70;99.90;;;;;;5037323;28;20041;-78
2022/12/27 07:50:43;;;;;;;5.07;3.25;;;-3.70;99.90;;;;;;5034775;28;20505;-76
2022/12/27 07:53:11;;;;;;;6.30;3.28;;;-3.70;99.90;;;;;;5032011;28;20449;-78
2022/12/27 07:55:39;;;;;;;5.07;3.25;;;-3.70;99.90;;;;;;5042676;28;20518;-78
2022/12/27 07:58:10;;;;;;;3.88;3.33;;;-3.70;99.90;;;;;;5049489;28;20069;-81
2022/12/27 08:00:40;;;;;;;4.05;3.00;;;-3.60;99.90;;;;;;5053335;28;20098;-82
2022/12/27 08:03:12;;;;;;;4.35;3.38;;;-3.60;99.90;;;;;;5055307;28;20127;-84
2022/12/27 08:05:48;;;;;;;6.50;4.40;;;-3.60;99.90;;;;;;5057026;28;20049;-84
2022/12/27 08:08:23;;;;;;;7.38;3.78;;;-3.50;99.90;;;;;;5052132;28;20107;-76
2022/12/27 08:10:50;;;;;;;5.32;3.58;;;-3.50;99.90;;;;;;5030772;28;20061;-75
2022/12/27 08:13:18;;;;;;;4.50;3.25;;;-3.50;99.90;;;;;;5046920;28;20523;-74
2022/12/27 08:15:47;;;;;;;4.72;4.18;;;-3.50;99.90;;;;;;5043959;28;20528;-73
2022/12/27 08:18:15;;;;;;;7.43;3.65;;;-3.50;99.90;;;;;;5046877;28;20544;-74
2022/12/27 08:20:43;;;;;;;9.63;3.58;;;-3.40;99.90;;;;;;5039557;28;20525;-75
2022/12/27 08:23:10;;;;;;;9.55;5.53;;;-3.40;99.90;;;;;;5039479;28;20053;-74
2022/12/27 08:25:38;;;;;;;11.45;3.97;;;-3.40;99.90;;;;;;5031115;28;20041;-75
2022/12/27 08:28:08;;;;;;;4.93;3.92;;;-3.40;99.90;;;;;;5040233;28;20048;-75
2022/12/27 08:30:37;;;;;;;5.45;2.63;;;-3.30;99.90;;;;;;5032874;28;20088;-75
2022/12/27 08:33:06;;;;;;;4.72;3.97;;;-3.30;99.90;;;;;;5048663;28;20041;-76
2022/12/27 08:35:38;;;;;;;4.82;3.90;;;-3.30;99.90;;;;;;5037190;28;20046;-74
2022/12/27 08:38:06;;;;;;;5.72;4.47;;;-3.30;99.90;;;;;;5041519;28;20044;-73
2022/12/27 08:40:33;;;;;;;4.90;3.55;;;-3.20;99.90;;;;;;5031077;28;20052;-75
2022/12/27 08:43:01;;;;;;;5.28;4.15;;;-3.20;99.90;;;;;;5035101;28;20285;-75
2022/12/27 08:45:28;;;;;;;6.10;4.22;;;-3.10;99.90;;;;;;5038927;28;20469;-78
2022/12/27 08:47:59;;;;;;;4.90;4.10;;;-3.10;99.90;;;;;;5037095;28;20065;-77
2022/12/27 08:50:30;;;;;;;8.60;3.33;;;-3.10;99.90;;;;;;5044798;28;20056;-78
2022/12/27 08:52:59;;;;;;;5.07;4.57;;;-3.00;99.90;;;;;;5039026;28;20140;-78
2022/12/27 08:55:28;;;;;;;5.85;4.07;;;-2.90;99.90;;;;;;5044201;28;20540;-78
2022/12/27 08:57:59;;;;;;;6.13;3.80;;;-2.90;99.90;;;;;;5042020;28;20068;-79
2022/12/27 09:00:28;;;;;;;5.30;3.63;;;-2.90;99.90;;;;;;5041314;28;20055;-76
2022/12/27 09:02:55;;;;;;;4.43;3.63;;;-2.90;99.90;;;;;;5047288;28;20044;-78
2022/12/27 09:05:25;;;;;;;5.40;3.97;;;-3.00;99.90;;;;;;5043590;28;20453;-77
2022/12/27 09:07:54;;;;;;;6.35;4.07;;;-3.00;99.90;;;;;;5044702;28;20994;-80
2022/12/27 09:10:24;;;;;;;5.82;4.63;;;-3.00;99.90;;;;;;5043898;28;20055;-76
2022/12/27 09:12:51;;;;;;;6.65;4.03;;;-2.90;99.90;;;;;;5048642;28;20064;-82
2022/12/27 09:15:19;;;;;;;9.85;3.78;;;-2.80;99.90;;;;;;5043033;28;20044;-80
2022/12/27 09:17:47;;;;;;;4.50;4.07;;;-2.80;99.90;;;;;;5050822;28;20045;-77
2022/12/27 09:20:14;;;;;;;5.75;4.72;;;-2.90;99.90;;;;;;5045696;28;20063;-78
2022/12/27 09:22:42;;;;;;;4.22;3.83;;;-2.90;99.90;;;;;;5030289;28;20044;-79
2022/12/27 09:25:12;;;;;;;5.10;4.00;;;-2.90;99.90;;;;;;5026237;28;20099;-77
2022/12/27 09:27:41;;;;;;;8.32;4.90;;;-2.80;99.90;;;;;;5028196;28;20453;-76
2022/12/27 09:30:10;;;;;;;4.47;4.07;;;-2.80;99.90;;;;;;5046995;28;20040;-77
2022/12/27 09:32:37;;;;;;;7.68;4.25;;;-2.80;99.90;;;;;;5048398;28;20073;-79
2022/12/27 09:35:06;;;;;;;6.25;3.92;;;-2.80;99.90;;;;;;5041537;28;20507;-78
2022/12/27 09:37:34;;;;;;;6.85;4.00;;;-2.70;99.90;;;;;;5049224;28;20045;-79
2022/12/27 09:40:01;;;;;;;6.35;5.03;;;-2.80;99.90;;;;;;5045430;28;20409;-79
2022/12/27 09:42:43;;;;;;;4.90;4.40;;;-2.80;99.90;;;;;;5048047;28;20048;-79
2022/12/27 09:45:18;;;;;;;8.98;5.57;;;-2.70;99.90;;;;;;5046229;28;20080;-76
2022/12/27 09:47:53;;;;;;;7.50;5.22;;;-2.70;99.90;;;;;;5045787;28;20053;-79
2022/12/27 09:50:28;;;;;;;10.20;5.43;;;-2.70;99.90;;;;;;5047188;28;20049;-79
2022/12/27 09:53:02;;;;;;;7.13;4.63;;;-2.60;99.90;;;;;;5045853;28;20049;-79
2022/12/27 09:55:40;;;;;;;6.78;5.35;;;-2.50;99.90;;;;;;5043457;28;20131;-77
2022/12/27 09:58:33;;;;;;;7.75;5.20;;;-2.50;99.90;;;;;;5048487;28;20060;-78
2022/12/27 10:01:02;;;;;;;7.13;5.45;;;-2.60;99.90;;;;;;5046478;28;20128;-77
2022/12/27 10:03:30;;;;;;;8.23;4.70;;;-2.60;99.90;;;;;;5043176;28;20045;-77
2022/12/27 10:06:06;;;;;;;7.97;5.43;;;-2.60;99.90;;;;;;5046569;28;20060;-78
2022/12/27 10:08:45;;;;;;;10.50;4.93;;;-2.60;99.90;;;;;;5045250;28;20176;-76
2022/12/27 10:14:30;;;;;;;8.02;5.65;;;-2.60;99.90;;;;;;5060294;28;20195;-78
2022/12/27 10:17:07;;;;;;;8.23;5.70;;;-2.70;99.90;;;;;;5044480;28;20172;-72
2022/12/27 10:19:48;;;;;;;9.43;6.72;;;-2.70;99.90;;;;;;5045553;28;20083;-69
2022/12/27 10:22:24;;;;;;;9.35;5.43;;;-2.60;99.90;;;;;;5039436;28;20414;-76
2022/12/27 10:35:14;;;;;;;8.25;5.95;;;-2.50;99.90;;;;;;4836135;29;20061;-72
2022/12/27 10:37:41;;;;;;;8.35;5.65;;;-2.50;99.90;;;;;;4839815;29;20069;-70
2022/12/27 10:40:15;;;;;;;7.68;5.75;;;-2.50;99.90;;;;;;4836235;29;20133;-72
2022/12/27 10:42:47;;;;;;;7.97;5.82;;;-2.50;99.90;;;;;;4835784;29;20059;-70
2022/12/27 10:45:35;;;;;;;10.77;6.15;;;-2.50;99.90;;;;;;4835797;29;20153;-68
2022/12/27 10:48:19;;;;;;;9.73;6.45;;;-2.50;99.90;;;;;;4831681;29;20497;-69
2022/12/27 10:50:54;;;;;;;7.07;5.95;;;-2.50;99.90;;;;;;4836960;29;20070;-72
2022/12/27 10:53:34;;;;;;;7.53;6.00;;;-2.50;99.90;;;;;;4835241;29;20060;-73
2022/12/27 10:56:16;;;;;;;7.90;5.35;;;-2.50;99.90;;;;;;4836875;29;20088;-72
2022/12/27 10:58:46;;;;;;;10.02;6.05;;;-2.50;99.90;;;;;;4836951;29;20711;-72
2022/12/27 11:01:24;;;;;;;11.30;5.82;;;-2.40;99.90;;;;;;4837832;29;20073;-73
2022/12/27 11:04:11;;;;;;;9.25;5.40;;;-2.50;99.90;;;;;;4835046;29;20061;-73
2022/12/27 11:06:42;;;;;;;7.15;5.45;;;-2.50;99.90;;;;;;4837432;29;20053;-74
2022/12/27 11:09:29;;;;;;;9.85;6.38;;;-2.50;99.90;;;;;;4836116;29;20454;-73
2022/12/27 11:12:17;;;;;;;10.68;5.75;;;-2.50;99.90;;;;;;4835011;29;20171;-72
2022/12/27 11:14:58;;;;;;;9.07;6.20;;;-2.50;99.90;;;;;;4837401;29;20089;-73
2022/12/27 11:17:29;;;;;;;9.85;6.50;;;-2.40;99.90;;;;;;4835083;29;20050;-73
2022/12/27 11:20:02;;;;;;;9.40;6.28;;;-2.40;99.90;;;;;;4834030;29;20058;-74
2022/12/27 11:22:32;;;;;;;14.30;6.97;;;-2.40;99.90;;;;;;4836340;29;20053;-72
2022/12/27 11:25:00;;;;;;;9.63;6.05;;;-2.40;99.90;;;;;;4836171;29;20045;-71
2022/12/27 11:27:31;;;;;;;10.15;5.72;;;-2.30;99.90;;;;;;4836977;29;20050;-70
2022/12/27 11:30:00;;;;;;;9.80;7.00;;;-2.30;99.90;;;;;;4836308;29;20080;-70
2022/12/27 11:32:27;;;;;;;10.10;6.22;;;-2.30;99.90;;;;;;4835615;29;20089;-72
2022/12/27 11:34:57;;;;;;;12.15;5.72;;;-2.30;99.90;;;;;;4837155;29;20046;-76
2022/12/27 11:37:27;;;;;;;9.60;6.10;;;-2.30;99.90;;;;;;4836418;29;20049;-72
2022/12/27 11:40:21;;;;;;;7.78;6.30;;;-2.30;99.90;;;;;;4831628;29;20503;-72
2022/12/27 11:42:56;;;;;;;7.72;5.78;;;-2.30;99.90;;;;;;4835757;29;20060;-72
2022/12/27 11:45:29;;;;;;;12.57;5.80;;;-2.30;99.90;;;;;;4835188;29;20050;-71
2022/12/27 11:48:05;;;;;;;10.88;6.00;;;-2.30;99.90;;;;;;4818258;29;20073;-73
2022/12/27 11:50:46;;;;;;;8.95;6.10;;;-2.40;99.90;;;;;;4835840;29;20089;-72
2022/12/27 11:54:03;;;;;;;9.68;5.80;;;-2.40;99.90;;;;;;4835009;29;20061;-71
2022/12/27 11:56:35;;;;;;;7.95;5.38;;;-2.40;99.90;;;;;;4836020;29;20519;-70
2022/12/27 11:59:39;;;;;;;9.60;5.47;;;-2.40;99.90;;;;;;4832916;29;20046;-69
2022/12/27 12:02:26;;;;;;;8.27;5.28;;;-2.30;99.90;;;;;;4833482;29;20099;-69
2022/12/27 12:05:43;;;;;;;9.65;6.28;;;-2.30;99.90;;;;;;4832247;29;20053;-70
2022/12/27 12:09:08;;;;;;;6.97;5.30;;;-2.30;99.90;;;;;;4834982;29;20064;-68
2022/12/27 12:11:58;;;;;;;6.30;4.93;;;-2.30;99.90;;;;;;4836159;29;20403;-69
2022/12/27 12:15:06;;;;;;;10.55;5.40;;;-2.30;99.90;;;;;;4833821;29;20046;-69
2022/12/27 12:17:55;;;;;;;7.93;5.80;;;-2.30;99.90;;;;;;4834446;29;20152;-68
2022/12/27 12:20:50;;;;;;;6.95;5.68;;;-2.30;99.90;;;;;;4835468;29;20050;-71
2022/12/27 12:23:44;;;;;;;9.10;5.50;;;-2.30;99.90;;;;;;4836303;29;20119;-69
2022/12/27 12:26:17;;;;;;;6.28;4.82;;;-2.20;99.90;;;;;;4834611;29;20057;-69
2022/12/27 12:29:29;;;;;;;7.75;5.50;;;-2.10;99.90;;;;;;4834643;29;20510;-71
2022/12/27 12:32:36;;;;;;;9.07;5.88;;;-2.20;99.90;;;;;;4833398;29;20489;-73
2022/12/27 12:35:31;;;;;;;7.82;5.38;;;-2.20;99.90;;;;;;4833502;29;20542;-72
2022/12/27 12:38:13;;;;;;;9.57;5.47;;;-2.20;99.90;;;;;;4812376;29;20487;-71
2022/12/27 12:41:04;;;;;;;9.35;5.05;;;-2.20;99.90;;;;;;4834456;29;20149;-74
2022/12/27 12:43:58;;;;;;;7.38;5.72;;;-2.20;99.90;;;;;;4840132;29;20091;-73
2022/12/27 12:46:37;;;;;;;8.57;5.55;;;-2.20;99.90;;;;;;4853572;29;20144;-73
2022/12/27 12:49:50;;;;;;;7.28;5.47;;;-2.20;99.90;;;;;;4835122;29;20529;-73
2022/12/27 12:52:50;;;;;;;7.03;4.80;;;-2.20;99.90;;;;;;4824173;29;20521;-73
2022/12/27 12:55:33;;;;;;;7.35;5.10;;;-2.20;99.90;;;;;;4838655;29;20050;-71
2022/12/27 12:58:20;;;;;;;8.10;5.22;;;-2.20;99.90;;;;;;4838109;29;20426;-72
2022/12/27 13:01:23;;;;;;;9.25;6.07;;;-2.20;99.90;;;;;;4834610;29;20052;-69
2022/12/27 13:04:13;;;;;;;6.80;4.40;;;-2.20;99.90;;;;;;4834774;29;20054;-72
2022/12/27 13:07:17;;;;;;;8.68;5.38;;;-2.20;99.90;;;;;;4837418;29;20098;-71
2022/12/27 13:10:02;;;;;;;8.10;5.63;;;-2.20;99.90;;;;;;4840596;29;20053;-68
2022/12/27 13:12:41;;;;;;;9.13;5.70;;;-2.20;99.90;;;;;;4798556;29;20663;-70
2022/12/27 13:15:26;;;;;;;5.32;4.82;;;-2.10;99.90;;;;;;4776136;29;20059;-70
2022/12/27 13:18:07;;;;;;;6.72;4.80;;;-2.20;99.90;;;;;;4782101;29;20062;-72
2022/12/27 13:21:06;;;;;;;7.30;4.63;;;-2.20;99.90;;;;;;4781119;29;20055;-70
2022/12/27 13:23:50;;;;;;;7.10;4.90;;;-2.10;99.90;;;;;;4777738;29;20530;-70
2022/12/27 13:26:28;;;;;;;9.85;5.85;;;-2.10;99.90;;;;;;4783673;29;20067;-70
2022/12/27 13:29:20;;;;;;;12.40;6.18;;;-2.10;99.90;;;;;;4779574;29;20055;-68
2022/12/27 13:31:55;;;;;;;7.20;5.72;;;-2.20;99.90;;;;;;4778834;29;20534;-71
2022/12/27 13:34:41;;;;;;;4.47;3.60;;;-2.10;99.90;;;;;;4782623;29;20059;-68
2022/12/27 13:37:35;;;;;;;9.50;5.90;;;-2.10;99.90;;;;;;4781459;29;20059;-72
2022/12/27 13:40:37;;;;;;;7.15;5.28;;;-2.20;99.90;;;;;;4778709;29;20126;-70
2022/12/27 13:43:47;;;;;;;7.63;5.17;;;-2.20;99.90;;;;;;4777936;29;20513;-72
2022/12/27 13:46:48;;;;;;;6.47;4.95;;;-2.20;99.90;;;;;;4778529;29;20594;-72
2022/12/27 13:49:47;;;;;;;6.95;5.05;;;-2.10;99.90;;;;;;4780147;29;20055;-73
2022/12/27 13:52:39;;;;;;;7.18;5.18;;;-2.00;99.90;;;;;;4780877;29;20054;-73
2022/12/27 13:55:30;;;;;;;9.40;5.47;;;-2.00;99.90;;;;;;4779425;29;20485;-72
2022/12/27 13:58:35;;;;;;;6.22;4.45;;;-2.00;99.90;;;;;;4788540;29;20051;-74
2022/12/27 14:01:25;;;;;;;7.28;5.13;;;-2.00;99.90;;;;;;4780849;29;20055;-74
2022/12/27 14:04:26;;;;;;;8.57;5.97;;;-2.00;99.90;;;;;;4776879;30;20588;-75
2022/12/27 14:07:22;;;;;;;8.45;5.82;;;-2.00;99.90;;;;;;4776036;30;20143;-74
2022/12/27 14:10:15;;;;;;;8.52;4.70;;;-1.90;99.90;;;;;;4773332;30;20079;-73
2022/12/27 14:13:01;;;;;;;6.70;5.22;;;-1.90;99.90;;;;;;4788670;29;20085;-73
2022/12/27 14:15:59;;;;;;;11.00;6.28;;;-1.90;99.90;;;;;;4774040;30;20074;-77
2022/12/27 14:18:48;;;;;;;10.88;5.72;;;-1.90;99.90;;;;;;4767445;30;20087;-75
2022/12/27 14:21:42;;;;;;;8.63;5.95;;;-1.90;99.90;;;;;;4770319;29;20059;-72
2022/12/27 14:24:44;;;;;;;9.30;6.60;;;-1.90;99.90;;;;;;4775598;29;20064;-73
2022/12/27 14:28:23;;;;;;;7.97;5.88;;;-1.90;99.90;;;;;;4772576;29;20154;-69
2022/12/27 14:31:44;;;;;;;9.63;6.57;;;-1.90;99.90;;;;;;4785304;29;20065;-70
2022/12/27 14:34:59;;;;;;;10.68;7.28;;;-1.90;99.90;;;;;;4773150;29;20537;-69
2022/12/27 14:38:18;;;;;;;8.98;6.28;;;-1.90;99.90;;;;;;4770982;29;20051;-71
2022/12/27 14:41:39;;;;;;;8.55;6.30;;;-1.80;99.90;;;;;;4785134;29;20142;-70
2022/12/27 14:45:33;;;;;;;8.35;6.38;;;-1.80;99.90;;;;;;4784946;29;20098;-70
2022/12/27 14:49:17;;;;;;;8.90;6.43;;;-1.80;99.90;;;;;;4782447;29;20075;-71
2022/12/27 14:53:26;;;;;;;10.57;7.93;;;-1.90;99.90;;;;;;4753017;29;20066;-70
2022/12/27 14:56:07;;;;;;;12.90;7.70;;;-1.80;99.90;;;;;;4773610;29;20490;-71
2022/12/27 14:58:51;;;;;;;10.52;7.45;;;-1.70;99.90;;;;;;4780632;29;20085;-69
2022/12/27 15:01:38;;;;;;;12.32;7.30;;;-1.60;99.90;;;;;;4780359;29;20063;-70
2022/12/27 15:04:42;;;;;;;9.05;6.53;;;-1.60;99.90;;;;;;4773849;29;20051;-71
2022/12/27 15:07:36;;;;;;;10.27;7.18;;;-1.60;99.90;;;;;;4778684;29;20475;-70
2022/12/27 15:10:17;;;;;;;13.18;6.35;;;-1.50;99.90;;;;;;4782042;29;20051;-70
2022/12/27 15:12:52;;;;;;;10.98;6.82;;;-1.50;99.90;;;;;;4779077;29;20082;-70
2022/12/27 15:15:50;;;;;;;10.25;6.82;;;-1.50;99.90;;;;;;4780777;29;20078;-70
2022/12/27 15:18:49;;;;;;;13.80;7.35;;;-1.60;99.90;;;;;;4786778;29;20261;-70
2022/12/27 15:21:39;;;;;;;16.63;6.75;;;-1.60;99.90;;;;;;4789115;29;20573;-71
2022/12/27 15:24:24;;;;;;;8.90;6.38;;;-1.70;99.90;;;;;;4776183;29;20047;-72
2022/12/27 15:27:00;;;;;;;11.02;6.72;;;-1.70;99.90;;;;;;4779288;29;20142;-72
2022/12/27 15:29:41;;;;;;;10.55;7.07;;;-1.70;99.90;;;;;;4780414;29;20599;-70
2022/12/27 15:32:25;;;;;;;10.48;6.60;;;-1.70;99.90;;;;;;4781050;29;20519;-72
2022/12/27 15:35:38;;;;;;;11.98;6.90;;;-1.70;99.90;;;;;;4781133;29;20076;-74